createdAt,value
2018-04-07T00:00:35.718Z,57.00
2018-04-07T00:03:05.307Z,57.30
2018-04-07T00:05:35.853Z,57.50
2018-04-07T00:08:04.943Z,57.80
2018-04-07T00:10:34.310Z,58.00
2018-04-07T00:13:06.215Z,58.20
2018-04-07T00:15:36.067Z,58.40
2018-04-07T00:18:11.094Z,58.90
2018-04-07T00:20:40.975Z,59.80
2018-04-07T00:23:14.060Z,59.70
2018-04-07T00:25:44.563Z,60.40
2018-04-07T00:28:15.699Z,61.10
2018-04-07T00:30:44.935Z,61.50
2018-04-07T00:33:26.744Z,62.20
2018-04-07T00:35:55.916Z,61.90
2018-04-07T00:38:25.196Z,62.20
2018-04-07T00:40:54.458Z,62.40
2018-04-07T00:43:24.507Z,63.10
2018-04-07T00:45:54.318Z,62.50
2018-04-07T00:48:24.921Z,62.60
2018-04-07T00:50:54.753Z,62.50
2018-04-07T00:53:27.207Z,62.70
2018-04-07T00:58:30.621Z,62.40
2018-04-07T01:01:01.026Z,63.40
2018-04-07T01:03:34.374Z,63.20
2018-04-07T01:06:04.257Z,63.20
2018-04-07T01:08:36.344Z,63.10
2018-04-07T01:11:05.675Z,63.10
2018-04-07T01:13:37.815Z,63.30
2018-04-07T01:16:07.340Z,63.10
2018-04-07T01:18:41.496Z,63.00
2018-04-07T01:21:12.706Z,62.90
2018-04-07T01:24:12.489Z,62.70
2018-04-07T01:26:45.253Z,62.70
2018-04-07T01:29:15.533Z,63.30
2018-04-07T01:31:48.399Z,62.50
2018-04-07T01:34:18.135Z,62.30
2018-04-07T01:39:21.699Z,62.20
2018-04-07T01:55:12.636Z,63.00
2018-04-07T01:57:42.574Z,63.50
2018-04-07T02:00:12.728Z,64.10
2018-04-07T02:02:42.938Z,65.40
2018-04-07T02:05:13.582Z,65.00
2018-04-07T02:07:44.074Z,65.30
2018-04-07T02:10:17.972Z,65.10
2018-04-07T02:12:47.443Z,65.20
2018-04-07T02:15:17.639Z,65.10
2018-04-07T02:17:48.520Z,65.00
2018-04-07T02:20:19.472Z,64.90
2018-04-07T02:22:49.180Z,64.70
2018-04-07T02:25:22.803Z,64.40
2018-04-07T02:27:53.874Z,64.40
2018-04-07T02:30:24.495Z,64.60
2018-04-07T02:32:53.992Z,64.70
2018-04-07T02:35:26.594Z,64.40
2018-04-07T02:37:56.199Z,64.10
2018-04-07T02:40:29.754Z,64.30
2018-04-07T02:43:00.291Z,65.10
2018-04-07T02:45:31.713Z,65.00
2018-04-07T02:48:01.349Z,64.40
2018-04-07T02:50:35.615Z,65.40
2018-04-07T02:53:06.132Z,64.90
2018-04-07T02:55:37.476Z,65.00
2018-04-07T03:00:39.250Z,65.20
2018-04-07T03:03:09.481Z,65.50
2018-04-07T03:05:42.032Z,65.70
2018-04-07T03:08:11.965Z,65.90
2018-04-07T03:10:46.110Z,65.00
2018-04-07T03:13:16.066Z,66.00
2018-04-07T03:15:49.769Z,66.10
2018-04-07T03:18:19.498Z,65.80
2018-04-07T03:20:51.558Z,65.80
2018-04-07T03:23:21.280Z,65.80
2018-04-07T03:25:55.463Z,65.90
2018-04-07T03:30:57.861Z,66.50
2018-04-07T03:33:27.713Z,66.10
2018-04-07T03:36:01.329Z,66.00
2018-04-07T03:38:30.982Z,66.10
2018-04-07T03:41:04.471Z,66.00
2018-04-07T03:43:35.479Z,66.10
2018-04-07T03:46:09.153Z,66.60
2018-04-07T03:48:40.592Z,67.20
2018-04-07T03:51:14.356Z,68.50
2018-04-07T03:53:45.658Z,67.50
2018-04-07T03:56:16.739Z,67.80
2018-04-07T03:58:47.825Z,67.80
2018-04-07T04:01:18.330Z,67.10
2018-04-07T04:03:49.148Z,66.50
2018-04-07T04:06:20.480Z,66.20
2018-04-07T04:08:50.741Z,66.10
2018-04-07T04:11:23.196Z,66.50
2018-04-07T04:13:53.757Z,66.70
2018-04-07T04:16:25.431Z,67.10
2018-04-07T04:18:55.143Z,67.50
2018-04-07T04:21:28.741Z,66.90
2018-04-07T04:23:59.162Z,67.50
2018-04-07T04:26:30.387Z,67.60
2018-04-07T04:29:00.235Z,66.80
2018-04-07T04:31:33.312Z,66.60
2018-04-07T04:36:37.167Z,65.70
2018-04-07T04:39:07.571Z,65.60
2018-04-07T04:41:39.849Z,65.50
2018-04-07T04:44:09.359Z,65.20
2018-04-07T04:46:42.985Z,64.60
2018-04-07T04:49:14.797Z,64.10
2018-04-07T04:51:45.823Z,63.30
2018-04-07T04:54:15.841Z,62.90
2018-04-07T04:56:48.683Z,63.10
2018-04-07T05:04:19.910Z,62.80
2018-04-07T05:06:52.947Z,62.80
2018-04-07T05:09:24.552Z,62.80
2018-04-07T05:11:54.876Z,63.10
2018-04-07T05:14:25.442Z,63.70
2018-04-07T05:19:27.250Z,65.30
2018-04-07T05:22:10.442Z,66.20
2018-04-07T05:24:41.761Z,67.10
2018-04-07T05:29:42.413Z,68.40
2018-04-07T05:32:12.267Z,68.70
2018-04-07T05:34:42.447Z,67.60
2018-04-07T05:37:15.222Z,69.90
2018-04-07T05:39:45.476Z,69.00
2018-04-07T05:42:17.171Z,70.40
2018-04-07T05:44:46.543Z,69.10
2018-04-07T05:47:19.954Z,69.90
2018-04-07T05:49:50.944Z,69.20
2018-04-07T05:54:50.643Z,68.60
2018-04-07T05:57:32.405Z,68.30
2018-04-07T06:00:02.192Z,68.10
2018-04-07T06:02:32.153Z,68.00
2018-04-07T06:05:02.439Z,68.30
2018-04-07T06:10:01.954Z,68.60
2018-04-07T06:12:32.795Z,68.20
2018-04-07T06:17:35.525Z,67.50
2018-04-07T06:20:05.159Z,67.10
2018-04-07T06:22:38.927Z,66.80
2018-04-07T06:25:09.019Z,66.70
2018-04-07T06:27:40.829Z,66.00
2018-04-07T06:30:11.107Z,65.60
2018-04-07T06:32:44.962Z,64.60
2018-04-07T06:35:14.210Z,64.00
2018-04-07T06:37:47.553Z,63.50
2018-04-07T06:40:16.834Z,62.20
2018-04-07T06:42:50.712Z,60.50
2018-04-07T06:45:21.042Z,59.50
2018-04-07T06:47:54.222Z,58.80
2018-04-07T06:50:24.168Z,57.40
2018-04-07T06:55:27.221Z,53.60
2018-04-07T06:58:09.108Z,50.10
2018-04-07T07:00:38.698Z,47.30
2018-04-07T07:03:10.008Z,45.20
2018-04-07T07:05:41.072Z,43.80
2018-04-07T07:08:10.118Z,42.90
2018-04-07T07:10:39.247Z,42.70
2018-04-07T07:15:42.201Z,41.10
2018-04-07T07:18:14.854Z,40.70
2018-04-07T07:20:43.878Z,38.60
2018-04-07T07:23:17.187Z,39.00
2018-04-07T07:25:46.533Z,41.40
2018-04-07T07:28:19.761Z,41.20
2018-04-07T07:30:49.581Z,39.80
2018-04-07T07:33:22.383Z,39.40
2018-04-07T07:35:52.236Z,37.90
2018-04-07T07:38:23.207Z,38.10
2018-04-07T07:40:52.197Z,38.40
2018-04-07T07:43:25.344Z,37.90
2018-04-07T07:45:55.818Z,37.20
2018-04-07T07:48:37.210Z,36.30
2018-04-07T07:51:06.212Z,37.40
2018-04-07T07:53:35.595Z,37.40
2018-04-07T07:56:04.542Z,38.90
2018-04-07T07:58:33.530Z,39.30
2018-04-07T08:01:03.974Z,40.10
2018-04-07T08:03:35.914Z,38.90
2018-04-07T08:06:04.942Z,37.40
2018-04-07T08:08:38.898Z,37.90
2018-04-07T08:11:08.711Z,36.50
2018-04-07T08:13:42.797Z,35.40
2018-04-07T08:29:22.348Z,40.00
2018-04-07T08:32:04.549Z,39.30
2018-04-07T08:34:34.431Z,41.00
2018-04-07T08:37:04.041Z,38.50
2018-04-07T08:42:03.592Z,37.40
2018-04-07T08:44:32.853Z,36.60
2018-04-07T08:47:05.246Z,38.50
2018-04-07T08:49:34.144Z,39.10
2018-04-07T08:52:08.545Z,40.60
2018-04-07T08:54:38.877Z,40.00
2018-04-07T08:57:11.973Z,39.40
2018-04-07T08:59:42.016Z,39.20
2018-04-07T09:02:15.081Z,39.80
2018-04-07T09:04:44.767Z,39.60
2018-04-07T09:07:17.517Z,38.60
2018-04-07T09:09:46.506Z,38.50
2018-04-07T09:12:28.775Z,39.80
2018-04-07T09:14:59.262Z,39.30
2018-04-07T09:19:59.677Z,39.50
2018-04-07T09:22:28.513Z,39.20
2018-04-07T09:24:57.474Z,40.50
2018-04-07T09:27:27.155Z,43.70
2018-04-07T09:48:26.555Z,47.60
2018-04-07T09:50:55.585Z,47.00
2018-04-07T09:53:25.609Z,48.10
2018-04-07T09:55:54.627Z,48.20
2018-04-07T09:58:23.428Z,47.20
2018-04-07T10:00:52.763Z,47.60
2018-04-07T10:03:22.565Z,47.80
2018-04-07T10:08:22.164Z,45.80
2018-04-07T10:15:55.432Z,46.20
2018-04-07T10:18:24.733Z,46.90
2018-04-07T10:21:07.158Z,47.50
2018-04-07T10:23:36.681Z,46.20
2018-04-07T10:26:05.715Z,45.50
2018-04-07T10:28:35.345Z,46.60
2018-04-07T10:31:04.698Z,46.00
2018-04-07T10:33:33.794Z,45.70
2018-04-07T10:36:16.807Z,45.30
2018-04-07T10:38:45.708Z,45.00
2018-04-07T10:41:14.636Z,45.40
2018-04-07T10:43:44.267Z,45.20
2018-04-07T10:46:17.139Z,45.30
2018-04-07T10:48:48.881Z,44.40
2018-04-07T10:51:18.604Z,44.40
2018-04-07T10:53:47.533Z,45.20
2018-04-07T10:56:19.282Z,45.10
2018-04-07T10:58:48.519Z,45.20
2018-04-07T11:01:21.569Z,45.50
2018-04-07T11:03:50.808Z,45.10
2018-04-07T11:06:24.038Z,46.50
2018-04-07T11:08:53.653Z,33.70
2018-04-07T11:11:26.622Z,32.70
2018-04-07T11:13:55.908Z,31.40
2018-04-07T11:16:27.777Z,32.50
2018-04-07T11:21:29.923Z,30.00
2018-04-07T11:23:58.807Z,30.60
2018-04-07T11:26:34.203Z,29.60
2018-04-07T11:29:03.922Z,30.20
2018-04-07T11:31:34.526Z,30.40
2018-04-07T11:34:03.542Z,30.10
2018-04-07T11:36:40.364Z,29.80
2018-04-07T11:39:09.481Z,30.20
2018-04-07T11:41:40.769Z,31.10
2018-04-07T11:44:09.681Z,29.90
2018-04-07T11:46:42.988Z,30.00
2018-04-07T11:49:12.404Z,31.10
2018-04-07T11:51:45.663Z,29.80
2018-04-07T11:54:15.660Z,29.70
2018-04-07T11:56:49.078Z,29.60
2018-04-07T11:59:18.351Z,30.00
2018-04-07T12:01:53.194Z,29.80
2018-04-07T12:04:24.009Z,30.40
2018-04-07T12:06:58.392Z,29.90
2018-04-07T12:09:28.697Z,30.20
2018-04-07T12:12:02.230Z,30.20
2018-04-07T12:14:31.877Z,30.00
2018-04-07T12:17:05.841Z,30.00
2018-04-07T12:19:35.798Z,29.70
2018-04-07T12:22:09.947Z,29.10
2018-04-07T12:24:38.776Z,29.60
2018-04-07T12:27:17.360Z,29.70
2018-04-07T12:29:46.730Z,29.30
2018-04-07T12:32:16.063Z,29.70
2018-04-07T12:34:46.041Z,30.70
2018-04-07T12:37:18.722Z,29.50
2018-04-07T12:42:20.939Z,29.40
2018-04-07T12:44:49.867Z,29.60
2018-04-07T12:47:31.424Z,29.30
2018-04-07T12:50:00.594Z,29.70
2018-04-07T12:52:29.475Z,29.80
2018-04-07T12:54:58.958Z,28.90
2018-04-07T12:57:29.203Z,28.70
2018-04-07T12:59:59.574Z,28.60
2018-04-07T13:02:32.115Z,29.00
2018-04-07T13:05:02.411Z,28.80
2018-04-07T13:07:32.649Z,29.40
2018-04-07T13:10:01.545Z,29.30
2018-04-07T13:12:43.515Z,29.90
2018-04-07T13:15:13.478Z,29.90
2018-04-07T13:17:43.724Z,30.30
2018-04-07T13:20:13.768Z,30.20
2018-04-07T13:22:43.797Z,29.60
2018-04-07T13:25:14.144Z,29.90
2018-04-07T13:27:43.714Z,29.30
2018-04-07T13:32:44.499Z,29.70
2018-04-07T13:35:13.480Z,29.20
2018-04-07T13:37:47.223Z,29.60
2018-04-07T13:40:16.565Z,29.70
2018-04-07T13:42:50.382Z,30.00
2018-04-07T13:45:20.545Z,29.80
2018-04-07T13:48:03.407Z,29.60
2018-04-07T13:50:33.019Z,29.70
2018-04-07T13:53:01.893Z,29.40
2018-04-07T13:55:30.777Z,29.50
2018-04-07T13:58:12.236Z,29.50
2018-04-07T14:00:42.356Z,29.70
2018-04-07T14:03:11.967Z,30.00
2018-04-07T14:05:41.740Z,30.00
2018-04-07T14:08:14.486Z,29.80
2018-04-07T14:10:44.667Z,29.60
2018-04-07T14:13:16.868Z,29.70
2018-04-07T14:15:45.721Z,29.80
2018-04-07T14:18:27.901Z,29.90
2018-04-07T14:23:27.424Z,29.70
2018-04-07T14:25:56.538Z,29.60
2018-04-07T14:30:57.243Z,29.10
2018-04-07T14:33:29.656Z,29.00
2018-04-07T14:35:58.591Z,28.80
2018-04-07T14:38:40.430Z,29.10
2018-04-07T14:41:10.137Z,29.80
2018-04-07T14:43:39.254Z,29.20
2018-04-07T14:46:08.980Z,28.70
2018-04-07T14:48:38.551Z,29.30
2018-04-07T14:51:07.927Z,28.60
2018-04-07T14:53:41.576Z,28.70
2018-04-07T14:56:10.462Z,28.40
2018-04-07T14:58:45.139Z,28.60
2018-04-07T15:01:14.857Z,28.90
2018-04-07T15:03:48.189Z,28.80
2018-04-07T15:06:17.123Z,27.80
2018-04-07T15:08:51.385Z,27.80
2018-04-07T15:11:20.373Z,28.00
2018-04-07T15:13:50.411Z,28.60
2018-04-07T15:16:20.736Z,28.50
2018-04-07T15:21:21.219Z,28.10
2018-04-07T15:23:50.295Z,27.90
2018-04-07T15:26:19.925Z,28.70
2018-04-07T15:28:49.175Z,28.30
2018-04-07T15:31:18.536Z,28.90
2018-04-07T15:33:47.420Z,28.00
2018-04-07T15:36:17.517Z,28.00
2018-04-07T15:38:47.210Z,28.60
2018-04-07T15:41:20.335Z,28.90
2018-04-07T15:43:49.464Z,28.40
2018-04-07T15:46:22.268Z,28.40
2018-04-07T15:48:51.186Z,28.70
2018-04-07T15:51:27.057Z,28.30
2018-04-07T15:53:56.719Z,28.40
2018-04-07T15:56:28.778Z,28.50
2018-04-07T15:58:57.957Z,28.30
2018-04-07T16:01:39.463Z,29.30
2018-04-07T16:04:09.369Z,28.90
2018-04-07T16:06:38.785Z,29.10
2018-04-07T16:09:09.110Z,28.80
2018-04-07T16:11:40.197Z,29.00
2018-04-07T16:14:09.269Z,29.20
2018-04-07T16:16:43.394Z,29.40
2018-04-07T16:19:12.335Z,29.60
2018-04-07T16:21:46.694Z,29.60
2018-04-07T16:24:16.103Z,29.80
2018-04-07T16:26:52.878Z,29.30
2018-04-07T16:29:21.935Z,29.50
2018-04-07T16:34:23.661Z,31.00
2018-04-07T16:36:57.424Z,31.40
2018-04-07T16:39:27.785Z,31.60
2018-04-07T16:42:03.411Z,30.90
2018-04-07T16:44:33.906Z,30.40
2018-04-07T16:47:04.293Z,30.80
2018-04-07T16:49:33.538Z,30.70
2018-04-07T16:52:08.227Z,31.80
2018-04-07T16:54:37.358Z,33.30
2018-04-07T16:59:39.411Z,34.90
2018-04-07T17:02:14.014Z,33.70
2018-04-07T17:04:44.454Z,34.40
2018-04-07T17:07:18.249Z,35.40
2018-04-07T17:09:48.858Z,36.50
2018-04-07T17:15:00.522Z,36.50
2018-04-07T17:17:29.387Z,36.50
2018-04-07T17:19:58.596Z,36.80
2018-04-07T17:22:32.556Z,37.30
2018-04-07T17:25:02.261Z,37.70
2018-04-07T17:27:36.253Z,37.00
2018-04-07T17:30:06.186Z,36.70
2018-04-07T17:32:48.229Z,36.60
2018-04-07T17:35:17.644Z,36.20
2018-04-07T17:37:46.772Z,36.20
2018-04-07T17:40:17.712Z,36.90
2018-04-07T17:42:47.688Z,37.10
2018-04-07T17:45:16.535Z,36.50
2018-04-07T17:47:58.809Z,37.30
2018-04-07T17:50:28.776Z,37.50
2018-04-07T17:52:58.811Z,37.50
2018-04-07T17:55:27.975Z,37.80
2018-04-07T17:57:56.907Z,38.50
2018-04-07T18:00:26.673Z,38.30
2018-04-07T18:03:00.383Z,38.10
2018-04-07T18:05:29.676Z,38.50
2018-04-07T18:08:03.852Z,38.70
2018-04-07T18:10:33.238Z,39.40
2018-04-07T18:13:05.799Z,39.50
2018-04-07T18:15:35.070Z,40.10
2018-04-07T18:18:11.871Z,40.10
2018-04-07T18:20:41.934Z,40.60
2018-04-07T18:23:14.842Z,40.60
2018-04-07T18:25:44.113Z,40.80
2018-04-07T18:28:18.425Z,40.60
2018-04-07T18:30:49.230Z,40.60
2018-04-07T18:33:31.680Z,40.30
2018-04-07T18:36:02.108Z,40.50
2018-04-07T18:38:31.839Z,41.50
2018-04-07T18:41:01.525Z,41.10
2018-04-07T18:43:30.870Z,41.20
2018-04-07T18:46:00.137Z,41.40
2018-04-07T18:48:34.130Z,41.70
2018-04-07T18:51:04.654Z,42.20
2018-04-07T18:53:37.458Z,42.30
2018-04-07T18:56:06.794Z,42.40
2018-04-07T18:58:39.999Z,42.50
2018-04-07T19:01:09.691Z,42.70
2018-04-07T19:03:51.698Z,43.00
2018-04-07T19:06:20.795Z,43.20
2018-04-07T19:08:49.739Z,43.10
2018-04-07T19:11:19.101Z,43.20
2018-04-07T19:13:49.206Z,43.30
2018-04-07T19:16:18.888Z,43.50
2018-04-07T19:19:01.340Z,43.70
2018-04-07T19:21:30.554Z,44.60
2018-04-07T19:23:59.444Z,45.10
2018-04-07T19:26:28.711Z,45.00
2018-04-07T19:29:03.858Z,44.70
2018-04-07T19:31:33.960Z,44.60
2018-04-07T19:34:07.069Z,44.70
2018-04-07T19:36:36.711Z,45.10
2018-04-07T19:39:10.226Z,44.80
2018-04-07T19:44:15.253Z,45.50
2018-04-07T19:46:44.928Z,45.70
2018-04-07T19:49:26.261Z,45.90
2018-04-07T19:51:57.187Z,45.80
2018-04-07T19:54:26.991Z,46.50
2018-04-07T19:56:56.707Z,46.50
2018-04-07T19:59:26.618Z,45.90
2018-04-07T20:01:57.161Z,46.40
2018-04-07T20:04:27.848Z,47.30
2018-04-07T20:06:57.187Z,47.00
2018-04-07T20:09:39.173Z,46.80
2018-04-07T20:12:09.183Z,46.90
2018-04-07T20:14:38.070Z,47.30
2018-04-07T20:19:40.835Z,46.90
2018-04-07T20:22:10.812Z,47.00
2018-04-07T20:24:54.050Z,47.30
2018-04-07T20:27:24.388Z,47.40
2018-04-07T20:29:54.917Z,47.70
2018-04-07T20:32:23.842Z,48.20
2018-04-07T20:34:53.717Z,48.20
2018-04-07T20:37:23.578Z,48.20
2018-04-07T20:39:56.997Z,48.60
2018-04-07T20:42:28.243Z,49.00
2018-04-07T20:44:59.603Z,49.80
2018-04-07T20:47:28.821Z,49.90
2018-04-07T20:50:02.816Z,50.20
2018-04-07T20:52:32.021Z,50.70
2018-04-07T20:55:06.318Z,51.60
2018-04-07T20:57:36.437Z,51.90
2018-04-07T21:00:09.052Z,52.80
2018-04-07T21:05:13.322Z,51.90
2018-04-07T21:07:43.879Z,51.70
2018-04-07T21:10:16.996Z,51.80
2018-04-07T21:15:22.407Z,51.10
2018-04-07T21:17:51.552Z,50.70
2018-04-07T21:20:25.582Z,50.60
2018-04-07T21:22:55.936Z,50.50
2018-04-07T21:25:30.473Z,50.30
2018-04-07T21:27:59.669Z,49.90
2018-04-07T21:30:34.026Z,49.40
2018-04-07T21:33:04.796Z,49.60
2018-04-07T21:35:40.982Z,49.80
2018-04-07T21:38:11.613Z,50.10
2018-04-07T21:40:42.471Z,50.40
2018-04-07T21:43:12.712Z,50.30
2018-04-07T21:45:45.502Z,51.20
2018-04-07T21:48:15.784Z,50.80
2018-04-07T21:50:49.934Z,51.10
2018-04-07T21:53:19.337Z,51.20
2018-04-07T21:55:51.928Z,51.40
2018-04-07T22:00:55.573Z,51.70
2018-04-07T22:03:26.172Z,51.70
2018-04-07T22:05:58.531Z,51.90
2018-04-07T22:08:28.829Z,52.00
2018-04-07T22:11:04.493Z,52.30
2018-04-07T22:16:08.550Z,52.40
2018-04-07T22:18:39.138Z,52.30
2018-04-07T22:21:12.993Z,52.20
2018-04-07T22:23:42.593Z,51.90
2018-04-07T22:26:15.705Z,51.80
2018-04-07T22:28:45.683Z,51.80
2018-04-07T22:31:29.150Z,51.80
2018-04-07T22:34:00.115Z,51.90
2018-04-07T22:36:30.616Z,52.30
2018-04-07T22:38:59.707Z,51.80
2018-04-07T22:41:29.258Z,51.70
2018-04-07T22:47:00.973Z,51.80
2018-04-07T22:49:30.785Z,51.80
2018-04-07T22:51:59.600Z,51.80
2018-04-07T22:54:32.877Z,51.80
2018-04-07T22:57:02.445Z,51.80
2018-04-07T22:59:35.146Z,51.80
2018-04-07T23:02:04.986Z,52.30
2018-04-07T23:04:40.283Z,52.10
2018-04-07T23:07:09.440Z,52.00
2018-04-07T23:09:42.592Z,52.00
2018-04-07T23:12:11.956Z,51.90
2018-04-07T23:14:45.938Z,52.00
2018-04-07T23:19:51.864Z,52.90
2018-04-07T23:22:21.322Z,53.10
2018-04-07T23:24:55.782Z,53.50
2018-04-07T23:27:25.103Z,54.00
2018-04-07T23:29:59.518Z,54.80
2018-04-07T23:32:29.357Z,55.30
2018-04-07T23:35:03.541Z,55.60
2018-04-07T23:37:32.998Z,55.50
2018-04-07T23:40:05.971Z,55.40
2018-04-07T23:42:35.572Z,55.30
2018-04-07T23:45:10.000Z,55.10
2018-04-07T23:47:40.552Z,55.00
2018-04-07T23:50:16.387Z,55.00
2018-04-07T23:52:46.660Z,55.00
2018-04-07T23:55:15.843Z,55.20
2018-04-07T23:57:45.475Z,55.60
